sensor_id;sensor_type;location;lat;lon;timestamp;temperature;humidity
31084;DHT22;36333;51.382;0.016;2022-09-14T00:01:33;15.90;99.90
31084;DHT22;36333;51.382;0.016;2022-09-14T00:04:07;15.90;99.90
31084;DHT22;36333;51.382;0.016;2022-09-14T00:06:34;15.90;99.90
31084;DHT22;36333;51.382;0.016;2022-09-14T00:09:03;15.80;99.90
31084;DHT22;36333;51.382;0.016;2022-09-14T00:11:34;15.90;99.90
31084;DHT22;36333;51.382;0.016;2022-09-14T00:14:03;15.90;99.90
31084;DHT22;36333;51.382;0.016;2022-09-14T00:16:34;15.90;99.90
31084;DHT22;36333;51.382;0.016;2022-09-14T00:19:24;15.80;99.90
31084;DHT22;36333;51.382;0.016;2022-09-14T00:21:54;15.90;99.90
31084;DHT22;36333;51.382;0.016;2022-09-14T00:24:26;15.90;99.90
31084;DHT22;36333;51.382;0.016;2022-09-14T00:26:53;15.90;99.90
31084;DHT22;36333;51.382;0.016;2022-09-14T00:29:21;14.70;99.90
31084;DHT22;36333;51.382;0.016;2022-09-14T00:31:50;15.90;99.90
31084;DHT22;36333;51.382;0.016;2022-09-14T00:34:18;15.90;99.90
31084;DHT22;36333;51.382;0.016;2022-09-14T00:36:47;15.90;99.90
31084;DHT22;36333;51.382;0.016;2022-09-14T00:39:16;15.90;99.90
31084;DHT22;36333;51.382;0.016;2022-09-14T00:41:46;15.90;99.90
31084;DHT22;36333;51.382;0.016;2022-09-14T00:46:50;15.90;99.90
31084;DHT22;36333;51.382;0.016;2022-09-14T00:49:26;15.90;99.90
31084;DHT22;36333;51.382;0.016;2022-09-14T00:52:10;15.90;99.90
31084;DHT22;36333;51.382;0.016;2022-09-14T00:54:54;15.90;99.90
31084;DHT22;36333;51.382;0.016;2022-09-14T00:57:24;15.90;99.90
31084;DHT22;36333;51.382;0.016;2022-09-14T00:59:52;15.80;99.90
31084;DHT22;36333;51.382;0.016;2022-09-14T01:02:22;15.80;99.90
31084;DHT22;36333;51.382;0.016;2022-09-14T01:04:51;15.80;99.90
31084;DHT22;36333;51.382;0.016;2022-09-14T01:10:17;15.80;99.90
31084;DHT22;36333;51.382;0.016;2022-09-14T01:16:02;15.80;99.90
31084;DHT22;36333;51.382;0.016;2022-09-14T01:18:40;15.80;99.90
31084;DHT22;36333;51.382;0.016;2022-09-14T01:21:20;15.80;99.90
31084;DHT22;36333;51.382;0.016;2022-09-14T01:23:56;15.70;99.90
31084;DHT22;36333;51.382;0.016;2022-09-14T01:29:20;15.70;99.90
31084;DHT22;36333;51.382;0.016;2022-09-14T01:32:15;15.70;99.90
31084;DHT22;36333;51.382;0.016;2022-09-14T01:35:04;15.70;99.90
31084;DHT22;36333;51.382;0.016;2022-09-14T01:38:00;15.70;99.90
31084;DHT22;36333;51.382;0.016;2022-09-14T01:40:43;15.70;99.90
31084;DHT22;36333;51.382;0.016;2022-09-14T01:45:56;15.70;99.90
31084;DHT22;36333;51.382;0.016;2022-09-14T01:48:31;15.20;99.90
31084;DHT22;36333;51.382;0.016;2022-09-14T01:51:02;15.70;99.90
31084;DHT22;36333;51.382;0.016;2022-09-14T01:53:38;15.60;99.90
31084;DHT22;36333;51.382;0.016;2022-09-14T01:59:03;15.60;99.90
31084;DHT22;36333;51.382;0.016;2022-09-14T02:01:36;15.60;99.90
31084;DHT22;36333;51.382;0.016;2022-09-14T02:04:10;15.60;99.90
31084;DHT22;36333;51.382;0.016;2022-09-14T02:06:43;15.60;99.90
31084;DHT22;36333;51.382;0.016;2022-09-14T02:09:15;15.60;99.90
31084;DHT22;36333;51.382;0.016;2022-09-14T02:11:45;15.60;99.90
31084;DHT22;36333;51.382;0.016;2022-09-14T02:14:13;15.60;99.90
31084;DHT22;36333;51.382;0.016;2022-09-14T02:16:41;15.60;99.90
31084;DHT22;36333;51.382;0.016;2022-09-14T02:19:13;15.60;99.90
31084;DHT22;36333;51.382;0.016;2022-09-14T02:21:41;15.60;99.90
31084;DHT22;36333;51.382;0.016;2022-09-14T02:24:09;15.60;99.90
31084;DHT22;36333;51.382;0.016;2022-09-14T02:26:37;15.50;99.90
31084;DHT22;36333;51.382;0.016;2022-09-14T02:29:05;15.50;99.90
31084;DHT22;36333;51.382;0.016;2022-09-14T02:37:54;15.50;99.90
31084;DHT22;36333;51.382;0.016;2022-09-14T02:42:57;15.50;99.90
31084;DHT22;36333;51.382;0.016;2022-09-14T02:48:10;15.50;99.90
31084;DHT22;36333;51.382;0.016;2022-09-14T02:51:08;15.50;99.90
31084;DHT22;36333;51.382;0.016;2022-09-14T02:56:12;15.50;99.90
31084;DHT22;36333;51.382;0.016;2022-09-14T02:58:43;15.50;99.90
31084;DHT22;36333;51.382;0.016;2022-09-14T03:01:17;15.50;99.90
31084;DHT22;36333;51.382;0.016;2022-09-14T03:03:45;15.50;99.90
31084;DHT22;36333;51.382;0.016;2022-09-14T03:06:12;15.50;99.90
31084;DHT22;36333;51.382;0.016;2022-09-14T03:08:40;15.50;99.90
31084;DHT22;36333;51.382;0.016;2022-09-14T03:11:08;15.50;99.90
31084;DHT22;36333;51.382;0.016;2022-09-14T03:13:36;15.50;99.90
31084;DHT22;36333;51.382;0.016;2022-09-14T03:16:06;15.50;99.90
31084;DHT22;36333;51.382;0.016;2022-09-14T03:18:35;15.60;99.90
31084;DHT22;36333;51.382;0.016;2022-09-14T03:21:10;15.60;99.90
31084;DHT22;36333;51.382;0.016;2022-09-14T03:23:46;15.60;99.90
31084;DHT22;36333;51.382;0.016;2022-09-14T03:26:16;15.60;99.90
31084;DHT22;36333;51.382;0.016;2022-09-14T03:28:52;15.50;99.90
31084;DHT22;36333;51.382;0.016;2022-09-14T03:31:20;15.50;99.90
31084;DHT22;36333;51.382;0.016;2022-09-14T03:33:52;15.50;99.90
31084;DHT22;36333;51.382;0.016;2022-09-14T03:36:22;15.50;99.90
31084;DHT22;36333;51.382;0.016;2022-09-14T03:38:56;15.50;99.90
31084;DHT22;36333;51.382;0.016;2022-09-14T03:41:24;15.50;99.90
31084;DHT22;36333;51.382;0.016;2022-09-14T03:43:52;15.50;99.90
31084;DHT22;36333;51.382;0.016;2022-09-14T03:46:22;15.60;99.90
31084;DHT22;36333;51.382;0.016;2022-09-14T03:48:50;15.60;99.90
31084;DHT22;36333;51.382;0.016;2022-09-14T03:51:18;15.50;99.90
31084;DHT22;36333;51.382;0.016;2022-09-14T03:53:46;15.50;99.90
31084;DHT22;36333;51.382;0.016;2022-09-14T03:56:19;15.50;99.90
31084;DHT22;36333;51.382;0.016;2022-09-14T03:58:47;15.50;99.90
31084;DHT22;36333;51.382;0.016;2022-09-14T04:01:18;15.50;99.90
31084;DHT22;36333;51.382;0.016;2022-09-14T04:03:46;15.50;99.90
31084;DHT22;36333;51.382;0.016;2022-09-14T04:06:15;15.40;99.90
31084;DHT22;36333;51.382;0.016;2022-09-14T04:08:44;15.50;99.90
31084;DHT22;36333;51.382;0.016;2022-09-14T04:11:19;15.50;99.90
31084;DHT22;36333;51.382;0.016;2022-09-14T04:13:47;15.50;99.90
31084;DHT22;36333;51.382;0.016;2022-09-14T04:16:16;15.50;99.90
31084;DHT22;36333;51.382;0.016;2022-09-14T04:18:44;15.50;99.90
31084;DHT22;36333;51.382;0.016;2022-09-14T04:21:20;15.40;99.90
31084;DHT22;36333;51.382;0.016;2022-09-14T04:23:51;15.40;99.90
31084;DHT22;36333;51.382;0.016;2022-09-14T04:26:39;15.40;99.90
31084;DHT22;36333;51.382;0.016;2022-09-14T04:29:06;15.40;99.90
31084;DHT22;36333;51.382;0.016;2022-09-14T04:31:35;15.50;99.90
31084;DHT22;36333;51.382;0.016;2022-09-14T04:34:03;15.50;99.90
31084;DHT22;36333;51.382;0.016;2022-09-14T04:36:30;15.50;99.90
31084;DHT22;36333;51.382;0.016;2022-09-14T04:39:00;15.50;99.90
31084;DHT22;36333;51.382;0.016;2022-09-14T04:41:30;15.50;99.90
31084;DHT22;36333;51.382;0.016;2022-09-14T04:43:58;15.40;99.90
31084;DHT22;36333;51.382;0.016;2022-09-14T04:46:31;15.40;99.90
31084;DHT22;36333;51.382;0.016;2022-09-14T04:49:00;15.40;99.90
31084;DHT22;36333;51.382;0.016;2022-09-14T04:51:30;15.40;99.90
31084;DHT22;36333;51.382;0.016;2022-09-14T04:54:00;15.40;99.90
31084;DHT22;36333;51.382;0.016;2022-09-14T04:56:30;15.40;99.90
31084;DHT22;36333;51.382;0.016;2022-09-14T04:58:59;15.40;99.90
31084;DHT22;36333;51.382;0.016;2022-09-14T05:01:39;15.40;99.90
31084;DHT22;36333;51.382;0.016;2022-09-14T05:04:08;15.40;99.90
31084;DHT22;36333;51.382;0.016;2022-09-14T05:06:38;15.40;99.90
31084;DHT22;36333;51.382;0.016;2022-09-14T05:09:16;15.40;99.90
31084;DHT22;36333;51.382;0.016;2022-09-14T05:11:44;15.40;99.90
31084;DHT22;36333;51.382;0.016;2022-09-14T05:14:13;15.40;99.90
31084;DHT22;36333;51.382;0.016;2022-09-14T05:16:42;15.40;99.90
31084;DHT22;36333;51.382;0.016;2022-09-14T05:19:12;15.40;99.90
31084;DHT22;36333;51.382;0.016;2022-09-14T05:21:40;15.40;99.90
31084;DHT22;36333;51.382;0.016;2022-09-14T05:24:13;15.50;99.90
31084;DHT22;36333;51.382;0.016;2022-09-14T05:26:43;15.40;99.90
31084;DHT22;36333;51.382;0.016;2022-09-14T05:29:12;15.40;99.90
31084;DHT22;36333;51.382;0.016;2022-09-14T05:31:41;15.40;99.90
31084;DHT22;36333;51.382;0.016;2022-09-14T05:34:09;15.50;99.90
31084;DHT22;36333;51.382;0.016;2022-09-14T05:36:38;15.40;99.90
31084;DHT22;36333;51.382;0.016;2022-09-14T05:39:06;15.40;99.90
31084;DHT22;36333;51.382;0.016;2022-09-14T05:41:35;15.50;99.90
31084;DHT22;36333;51.382;0.016;2022-09-14T05:44:04;15.50;99.90
31084;DHT22;36333;51.382;0.016;2022-09-14T05:46:33;15.40;99.90
31084;DHT22;36333;51.382;0.016;2022-09-14T05:49:00;15.40;99.90
31084;DHT22;36333;51.382;0.016;2022-09-14T05:51:28;15.60;99.90
31084;DHT22;36333;51.382;0.016;2022-09-14T05:53:57;15.40;99.90
31084;DHT22;36333;51.382;0.016;2022-09-14T05:56:27;15.40;99.90
31084;DHT22;36333;51.382;0.016;2022-09-14T05:58:55;15.30;99.90
31084;DHT22;36333;51.382;0.016;2022-09-14T06:01:29;15.30;99.90
31084;DHT22;36333;51.382;0.016;2022-09-14T06:03:59;15.40;99.90
31084;DHT22;36333;51.382;0.016;2022-09-14T06:06:29;15.40;99.90
31084;DHT22;36333;51.382;0.016;2022-09-14T06:08:57;15.40;99.90
31084;DHT22;36333;51.382;0.016;2022-09-14T06:11:30;15.40;99.90
31084;DHT22;36333;51.382;0.016;2022-09-14T06:13:59;15.40;99.90
31084;DHT22;36333;51.382;0.016;2022-09-14T06:16:27;15.30;99.90
31084;DHT22;36333;51.382;0.016;2022-09-14T06:18:57;15.30;99.90
31084;DHT22;36333;51.382;0.016;2022-09-14T06:21:32;15.30;99.90
31084;DHT22;36333;51.382;0.016;2022-09-14T06:24:01;15.30;99.90
31084;DHT22;36333;51.382;0.016;2022-09-14T06:26:28;15.20;99.90
31084;DHT22;36333;51.382;0.016;2022-09-14T06:28:56;15.20;99.90
31084;DHT22;36333;51.382;0.016;2022-09-14T06:31:24;15.30;99.90
31084;DHT22;36333;51.382;0.016;2022-09-14T06:33:52;15.20;99.90
31084;DHT22;36333;51.382;0.016;2022-09-14T06:36:22;15.20;99.90
31084;DHT22;36333;51.382;0.016;2022-09-14T06:38:50;15.20;99.90
31084;DHT22;36333;51.382;0.016;2022-09-14T06:41:21;15.20;99.90
31084;DHT22;36333;51.382;0.016;2022-09-14T06:43:49;15.30;99.90
31084;DHT22;36333;51.382;0.016;2022-09-14T06:46:19;15.20;99.90
31084;DHT22;36333;51.382;0.016;2022-09-14T06:49:06;15.30;99.90
31084;DHT22;36333;51.382;0.016;2022-09-14T06:51:41;15.30;99.90
31084;DHT22;36333;51.382;0.016;2022-09-14T06:54:13;15.20;99.90
31084;DHT22;36333;51.382;0.016;2022-09-14T06:56:43;15.30;99.90
31084;DHT22;36333;51.382;0.016;2022-09-14T06:59:13;15.20;99.90
31084;DHT22;36333;51.382;0.016;2022-09-14T07:01:43;15.30;99.90
31084;DHT22;36333;51.382;0.016;2022-09-14T07:04:17;15.20;99.90
31084;DHT22;36333;51.382;0.016;2022-09-14T07:06:47;15.20;99.90
31084;DHT22;36333;51.382;0.016;2022-09-14T07:09:16;15.20;99.90
31084;DHT22;36333;51.382;0.016;2022-09-14T07:11:45;15.30;99.90
31084;DHT22;36333;51.382;0.016;2022-09-14T07:14:12;15.30;99.90
31084;DHT22;36333;51.382;0.016;2022-09-14T07:16:40;15.30;99.90
31084;DHT22;36333;51.382;0.016;2022-09-14T07:19:12;15.40;99.90
31084;DHT22;36333;51.382;0.016;2022-09-14T07:21:41;15.40;99.90
31084;DHT22;36333;51.382;0.016;2022-09-14T07:24:11;15.50;99.90
31084;DHT22;36333;51.382;0.016;2022-09-14T07:26:40;15.50;99.90
31084;DHT22;36333;51.382;0.016;2022-09-14T07:29:13;15.60;99.90
31084;DHT22;36333;51.382;0.016;2022-09-14T07:31:50;15.60;99.90
31084;DHT22;36333;51.382;0.016;2022-09-14T07:34:18;15.70;99.90
31084;DHT22;36333;51.382;0.016;2022-09-14T07:36:45;15.80;99.90
31084;DHT22;36333;51.382;0.016;2022-09-14T07:39:15;15.80;99.90
31084;DHT22;36333;51.382;0.016;2022-09-14T07:41:42;15.80;99.90
31084;DHT22;36333;51.382;0.016;2022-09-14T07:44:13;15.80;99.90
31084;DHT22;36333;51.382;0.016;2022-09-14T07:46:42;15.80;99.90
31084;DHT22;36333;51.382;0.016;2022-09-14T07:49:11;15.80;99.90
31084;DHT22;36333;51.382;0.016;2022-09-14T07:51:40;15.80;99.90
31084;DHT22;36333;51.382;0.016;2022-09-14T07:54:10;15.80;99.90
31084;DHT22;36333;51.382;0.016;2022-09-14T07:56:38;15.80;99.90
31084;DHT22;36333;51.382;0.016;2022-09-14T07:59:08;15.80;99.90
31084;DHT22;36333;51.382;0.016;2022-09-14T08:01:56;15.80;99.90
31084;DHT22;36333;51.382;0.016;2022-09-14T08:04:24;15.90;99.90
31084;DHT22;36333;51.382;0.016;2022-09-14T08:06:52;15.90;99.90
31084;DHT22;36333;51.382;0.016;2022-09-14T08:09:19;15.90;99.90
31084;DHT22;36333;51.382;0.016;2022-09-14T08:11:47;15.90;99.90
31084;DHT22;36333;51.382;0.016;2022-09-14T08:14:14;15.90;99.90
31084;DHT22;36333;51.382;0.016;2022-09-14T08:16:42;15.90;99.90
31084;DHT22;36333;51.382;0.016;2022-09-14T08:19:12;15.90;99.90
31084;DHT22;36333;51.382;0.016;2022-09-14T08:21:43;16.00;99.90
31084;DHT22;36333;51.382;0.016;2022-09-14T08:24:17;16.00;99.90
31084;DHT22;36333;51.382;0.016;2022-09-14T08:26:46;16.10;99.90
31084;DHT22;36333;51.382;0.016;2022-09-14T08:29:15;16.10;99.90
31084;DHT22;36333;51.382;0.016;2022-09-14T08:31:44;16.20;99.90
31084;DHT22;36333;51.382;0.016;2022-09-14T08:34:14;16.20;99.90
31084;DHT22;36333;51.382;0.016;2022-09-14T08:36:43;16.30;99.90
31084;DHT22;36333;51.382;0.016;2022-09-14T08:39:13;16.30;99.90
31084;DHT22;36333;51.382;0.016;2022-09-14T08:41:47;16.50;99.90
31084;DHT22;36333;51.382;0.016;2022-09-14T08:44:41;16.60;99.90
31084;DHT22;36333;51.382;0.016;2022-09-14T08:47:16;16.60;99.90
31084;DHT22;36333;51.382;0.016;2022-09-14T08:52:31;16.90;99.90
31084;DHT22;36333;51.382;0.016;2022-09-14T08:55:01;16.90;99.90
31084;DHT22;36333;51.382;0.016;2022-09-14T08:57:49;17.10;99.90
31084;DHT22;36333;51.382;0.016;2022-09-14T09:00:21;17.20;99.90
31084;DHT22;36333;51.382;0.016;2022-09-14T09:03:02;17.30;99.90
31084;DHT22;36333;51.382;0.016;2022-09-14T09:11:21;17.50;99.90
31084;DHT22;36333;51.382;0.016;2022-09-14T09:13:52;17.50;99.90
31084;DHT22;36333;51.382;0.016;2022-09-14T09:16:22;17.60;99.90
31084;DHT22;36333;51.382;0.016;2022-09-14T09:19:02;17.60;99.90
31084;DHT22;36333;51.382;0.016;2022-09-14T09:21:41;17.60;99.90
31084;DHT22;36333;51.382;0.016;2022-09-14T09:24:27;17.60;99.90
31084;DHT22;36333;51.382;0.016;2022-09-14T09:27:14;17.60;99.90
31084;DHT22;36333;51.382;0.016;2022-09-14T09:29:46;17.70;99.90
31084;DHT22;36333;51.382;0.016;2022-09-14T09:32:17;17.70;99.90
31084;DHT22;36333;51.382;0.016;2022-09-14T09:35:17;17.80;99.90
31084;DHT22;36333;51.382;0.016;2022-09-14T09:37:54;17.80;99.90
31084;DHT22;36333;51.382;0.016;2022-09-14T09:40:33;17.80;99.90
31084;DHT22;36333;51.382;0.016;2022-09-14T09:43:10;17.80;99.90
31084;DHT22;36333;51.382;0.016;2022-09-14T09:45:56;17.90;99.90
31084;DHT22;36333;51.382;0.016;2022-09-14T09:48:28;18.00;99.90
31084;DHT22;36333;51.382;0.016;2022-09-14T09:51:03;18.00;99.90
31084;DHT22;36333;51.382;0.016;2022-09-14T09:53:33;18.00;99.90
31084;DHT22;36333;51.382;0.016;2022-09-14T09:56:01;18.00;99.90
31084;DHT22;36333;51.382;0.016;2022-09-14T09:58:38;18.10;99.90
31084;DHT22;36333;51.382;0.016;2022-09-14T10:01:21;18.20;99.90
31084;DHT22;36333;51.382;0.016;2022-09-14T10:06:45;18.20;99.90
31084;DHT22;36333;51.382;0.016;2022-09-14T10:09:25;18.30;99.90
31084;DHT22;36333;51.382;0.016;2022-09-14T10:11:59;18.40;99.90
31084;DHT22;36333;51.382;0.016;2022-09-14T10:17:07;18.60;99.90
31084;DHT22;36333;51.382;0.016;2022-09-14T10:19:46;18.60;99.90
31084;DHT22;36333;51.382;0.016;2022-09-14T10:27:58;18.70;99.90
31084;DHT22;36333;51.382;0.016;2022-09-14T10:30:35;18.80;99.90
31084;DHT22;36333;51.382;0.016;2022-09-14T10:33:09;18.80;99.90
31084;DHT22;36333;51.382;0.016;2022-09-14T10:50:24;18.60;99.90
31084;DHT22;36333;51.382;0.016;2022-09-14T10:55:28;18.30;99.90
31084;DHT22;36333;51.382;0.016;2022-09-14T10:58:11;18.10;99.90
31084;DHT22;36333;51.382;0.016;2022-09-14T11:00:57;18.00;99.90
31084;DHT22;36333;51.382;0.016;2022-09-14T11:06:37;17.80;99.90
31084;DHT22;36333;51.382;0.016;2022-09-14T11:12:02;17.60;99.90
31084;DHT22;36333;51.382;0.016;2022-09-14T11:14:55;17.60;99.90
31084;DHT22;36333;51.382;0.016;2022-09-14T11:20:40;17.70;99.90
31084;DHT22;36333;51.382;0.016;2022-09-14T11:26:39;18.00;99.90
31084;DHT22;36333;51.382;0.016;2022-09-14T11:29:32;18.20;99.90
31084;DHT22;36333;51.382;0.016;2022-09-14T11:32:20;18.40;99.90
31084;DHT22;36333;51.382;0.016;2022-09-14T11:35:10;18.50;99.90
31084;DHT22;36333;51.382;0.016;2022-09-14T11:40:56;18.40;99.90
31084;DHT22;36333;51.382;0.016;2022-09-14T11:43:36;18.70;99.90
31084;DHT22;36333;51.382;0.016;2022-09-14T11:46:06;18.90;99.90
31084;DHT22;36333;51.382;0.016;2022-09-14T11:54:19;19.70;99.90
31084;DHT22;36333;51.382;0.016;2022-09-14T11:57:00;19.70;99.90
31084;DHT22;36333;51.382;0.016;2022-09-14T12:15:36;20.40;99.90
31084;DHT22;36333;51.382;0.016;2022-09-14T12:31:11;21.10;99.90
31084;DHT22;36333;51.382;0.016;2022-09-14T12:33:41;20.90;99.90
31084;DHT22;36333;51.382;0.016;2022-09-14T12:36:11;20.80;99.90
31084;DHT22;36333;51.382;0.016;2022-09-14T12:43:54;20.60;99.90
31084;DHT22;36333;51.382;0.016;2022-09-14T12:51:39;20.60;99.90
31084;DHT22;36333;51.382;0.016;2022-09-14T13:04:29;21.60;99.90
31084;DHT22;36333;51.382;0.016;2022-09-14T13:07:00;21.60;99.90
31084;DHT22;36333;51.382;0.016;2022-09-14T13:09:29;21.60;99.90
31084;DHT22;36333;51.382;0.016;2022-09-14T13:12:03;21.60;99.90
31084;DHT22;36333;51.382;0.016;2022-09-14T13:14:45;21.60;99.90
31084;DHT22;36333;51.382;0.016;2022-09-14T13:17:14;21.50;99.90
31084;DHT22;36333;51.382;0.016;2022-09-14T13:19:42;21.50;99.90
31084;DHT22;36333;51.382;0.016;2022-09-14T13:22:22;21.40;99.90
31084;DHT22;36333;51.382;0.016;2022-09-14T13:24:51;21.40;99.90
31084;DHT22;36333;51.382;0.016;2022-09-14T13:30:17;21.30;99.90
31084;DHT22;36333;51.382;0.016;2022-09-14T13:32:49;21.30;99.90
31084;DHT22;36333;51.382;0.016;2022-09-14T13:35:31;21.40;99.90
31084;DHT22;36333;51.382;0.016;2022-09-14T13:38:12;21.60;99.90
31084;DHT22;36333;51.382;0.016;2022-09-14T13:40:42;21.90;99.90
31084;DHT22;36333;51.382;0.016;2022-09-14T13:43:10;22.10;99.90
31084;DHT22;36333;51.382;0.016;2022-09-14T13:45:38;22.30;99.90
31084;DHT22;36333;51.382;0.016;2022-09-14T13:48:06;22.30;99.90
31084;DHT22;36333;51.382;0.016;2022-09-14T13:50:34;22.20;99.90
31084;DHT22;36333;51.382;0.016;2022-09-14T13:53:02;22.10;99.90
31084;DHT22;36333;51.382;0.016;2022-09-14T14:06:32;23.10;99.90
31084;DHT22;36333;51.382;0.016;2022-09-14T14:09:04;23.60;99.90
31084;DHT22;36333;51.382;0.016;2022-09-14T14:11:41;24.10;99.10
31084;DHT22;36333;51.382;0.016;2022-09-14T14:19:50;24.80;96.20
31084;DHT22;36333;51.382;0.016;2022-09-14T14:22:25;25.10;96.70
31084;DHT22;36333;51.382;0.016;2022-09-14T14:25:01;25.20;95.50
31084;DHT22;36333;51.382;0.016;2022-09-14T14:27:46;25.10;95.10
31084;DHT22;36333;51.382;0.016;2022-09-14T14:30:18;24.90;94.60
31084;DHT22;36333;51.382;0.016;2022-09-14T14:32:52;24.80;94.30
31084;DHT22;36333;51.382;0.016;2022-09-14T14:35:26;24.70;94.70
31084;DHT22;36333;51.382;0.016;2022-09-14T14:37:55;24.90;94.70
31084;DHT22;36333;51.382;0.016;2022-09-14T14:40:24;25.00;94.30
31084;DHT22;36333;51.382;0.016;2022-09-14T14:42:54;25.00;94.20
31084;DHT22;36333;51.382;0.016;2022-09-14T14:45:27;24.80;93.70
31084;DHT22;36333;51.382;0.016;2022-09-14T14:48:05;24.40;93.40
31084;DHT22;36333;51.382;0.016;2022-09-14T14:50:33;24.00;93.80
31084;DHT22;36333;51.382;0.016;2022-09-14T14:53:02;23.60;93.80
31084;DHT22;36333;51.382;0.016;2022-09-14T14:55:32;23.30;94.20
31084;DHT22;36333;51.382;0.016;2022-09-14T14:58:03;23.20;94.20
31084;DHT22;36333;51.382;0.016;2022-09-14T15:00:53;23.30;94.00
31084;DHT22;36333;51.382;0.016;2022-09-14T15:03:21;23.30;94.50
31084;DHT22;36333;51.382;0.016;2022-09-14T15:05:52;23.50;94.90
31084;DHT22;36333;51.382;0.016;2022-09-14T15:08:19;23.30;94.60
31084;DHT22;36333;51.382;0.016;2022-09-14T15:10:47;23.10;94.10
31084;DHT22;36333;51.382;0.016;2022-09-14T15:13:18;22.90;94.20
31084;DHT22;36333;51.382;0.016;2022-09-14T15:15:45;22.90;94.10
31084;DHT22;36333;51.382;0.016;2022-09-14T15:18:15;22.50;94.20
31084;DHT22;36333;51.382;0.016;2022-09-14T15:20:43;22.30;94.60
31084;DHT22;36333;51.382;0.016;2022-09-14T15:23:11;22.10;94.70
31084;DHT22;36333;51.382;0.016;2022-09-14T15:25:40;22.00;94.90
31084;DHT22;36333;51.382;0.016;2022-09-14T15:28:08;21.80;94.80
31084;DHT22;36333;51.382;0.016;2022-09-14T15:30:35;21.80;95.00
31084;DHT22;36333;51.382;0.016;2022-09-14T15:33:03;21.80;95.20
31084;DHT22;36333;51.382;0.016;2022-09-14T15:35:30;21.70;94.10
31084;DHT22;36333;51.382;0.016;2022-09-14T15:37:58;21.60;94.40
31084;DHT22;36333;51.382;0.016;2022-09-14T15:40:27;21.60;94.50
31084;DHT22;36333;51.382;0.016;2022-09-14T15:42:58;22.40;94.70
31084;DHT22;36333;51.382;0.016;2022-09-14T15:45:26;21.40;94.70
31084;DHT22;36333;51.382;0.016;2022-09-14T15:47:54;21.30;95.00
31084;DHT22;36333;51.382;0.016;2022-09-14T15:50:21;21.30;95.00
31084;DHT22;36333;51.382;0.016;2022-09-14T15:52:49;21.30;94.90
31084;DHT22;36333;51.382;0.016;2022-09-14T15:55:18;21.30;94.60
31084;DHT22;36333;51.382;0.016;2022-09-14T15:57:48;21.20;94.60
31084;DHT22;36333;51.382;0.016;2022-09-14T16:00:16;21.20;94.60
31084;DHT22;36333;51.382;0.016;2022-09-14T16:02:50;21.20;94.90
31084;DHT22;36333;51.382;0.016;2022-09-14T16:05:20;21.20;94.70
31084;DHT22;36333;51.382;0.016;2022-09-14T16:07:54;21.10;94.60
31084;DHT22;36333;51.382;0.016;2022-09-14T16:10:41;21.10;94.30
31084;DHT22;36333;51.382;0.016;2022-09-14T16:13:08;21.10;94.50
31084;DHT22;36333;51.382;0.016;2022-09-14T16:15:46;21.00;94.30
31084;DHT22;36333;51.382;0.016;2022-09-14T16:18:16;20.50;94.50
31084;DHT22;36333;51.382;0.016;2022-09-14T16:20:44;20.90;95.50
31084;DHT22;36333;51.382;0.016;2022-09-14T16:23:12;20.90;95.80
31084;DHT22;36333;51.382;0.016;2022-09-14T16:25:43;20.80;94.90
31084;DHT22;36333;51.382;0.016;2022-09-14T16:28:13;20.90;95.50
31084;DHT22;36333;51.382;0.016;2022-09-14T16:30:43;20.80;95.50
31084;DHT22;36333;51.382;0.016;2022-09-14T16:33:11;20.60;94.80
31084;DHT22;36333;51.382;0.016;2022-09-14T16:35:41;20.50;93.80
31084;DHT22;36333;51.382;0.016;2022-09-14T16:38:09;20.40;94.70
31084;DHT22;36333;51.382;0.016;2022-09-14T16:40:40;20.40;94.70
31084;DHT22;36333;51.382;0.016;2022-09-14T16:43:09;20.20;95.00
31084;DHT22;36333;51.382;0.016;2022-09-14T16:45:37;20.30;95.70
31084;DHT22;36333;51.382;0.016;2022-09-14T16:48:05;20.10;95.10
31084;DHT22;36333;51.382;0.016;2022-09-14T16:50:33;19.90;95.40
31084;DHT22;36333;51.382;0.016;2022-09-14T16:53:00;19.80;95.60
31084;DHT22;36333;51.382;0.016;2022-09-14T16:55:31;19.60;95.60
31084;DHT22;36333;51.382;0.016;2022-09-14T16:57:59;20.60;96.20
31084;DHT22;36333;51.382;0.016;2022-09-14T17:00:26;19.60;96.10
31084;DHT22;36333;51.382;0.016;2022-09-14T17:02:54;19.50;96.00
31084;DHT22;36333;51.382;0.016;2022-09-14T17:05:32;19.00;96.30
31084;DHT22;36333;51.382;0.016;2022-09-14T17:08:02;19.40;95.80
31084;DHT22;36333;51.382;0.016;2022-09-14T17:10:33;19.30;96.50
31084;DHT22;36333;51.382;0.016;2022-09-14T17:13:05;19.30;96.30
31084;DHT22;36333;51.382;0.016;2022-09-14T17:15:33;19.30;96.60
31084;DHT22;36333;51.382;0.016;2022-09-14T17:18:03;19.20;96.70
31084;DHT22;36333;51.382;0.016;2022-09-14T17:20:31;19.20;96.70
31084;DHT22;36333;51.382;0.016;2022-09-14T17:22:59;19.20;97.40
31084;DHT22;36333;51.382;0.016;2022-09-14T17:25:30;19.00;97.70
31084;DHT22;36333;51.382;0.016;2022-09-14T17:28:01;19.00;97.30
31084;DHT22;36333;51.382;0.016;2022-09-14T17:30:29;18.90;97.60
31084;DHT22;36333;51.382;0.016;2022-09-14T17:33:02;18.90;97.60
31084;DHT22;36333;51.382;0.016;2022-09-14T17:35:30;19.00;97.90
31084;DHT22;36333;51.382;0.016;2022-09-14T17:38:01;18.70;97.70
31084;DHT22;36333;51.382;0.016;2022-09-14T17:40:31;17.90;97.00
31084;DHT22;36333;51.382;0.016;2022-09-14T17:43:01;18.60;97.90
31084;DHT22;36333;51.382;0.016;2022-09-14T17:45:32;18.50;98.40
31084;DHT22;36333;51.382;0.016;2022-09-14T17:48:06;18.60;99.00
31084;DHT22;36333;51.382;0.016;2022-09-14T17:50:37;18.30;99.30
31084;DHT22;36333;51.382;0.016;2022-09-14T17:53:05;18.30;99.20
31084;DHT22;36333;51.382;0.016;2022-09-14T17:55:33;18.10;99.80
31084;DHT22;36333;51.382;0.016;2022-09-14T17:58:00;17.90;99.90
31084;DHT22;36333;51.382;0.016;2022-09-14T18:00:28;18.00;99.90
31084;DHT22;36333;51.382;0.016;2022-09-14T18:02:56;18.20;99.90
31084;DHT22;36333;51.382;0.016;2022-09-14T18:05:24;17.70;99.90
31084;DHT22;36333;51.382;0.016;2022-09-14T18:07:52;17.50;99.90
31084;DHT22;36333;51.382;0.016;2022-09-14T18:10:20;17.80;99.90
31084;DHT22;36333;51.382;0.016;2022-09-14T18:12:48;17.20;99.90
31084;DHT22;36333;51.382;0.016;2022-09-14T18:15:21;17.10;99.90
31084;DHT22;36333;51.382;0.016;2022-09-14T18:17:51;17.10;99.90
31084;DHT22;36333;51.382;0.016;2022-09-14T18:20:20;16.70;99.90
31084;DHT22;36333;51.382;0.016;2022-09-14T18:22:47;16.80;99.90
31084;DHT22;36333;51.382;0.016;2022-09-14T18:25:16;16.60;99.90
31084;DHT22;36333;51.382;0.016;2022-09-14T18:27:46;16.70;99.90
31084;DHT22;36333;51.382;0.016;2022-09-14T18:30:13;16.60;99.90
31084;DHT22;36333;51.382;0.016;2022-09-14T18:32:41;16.40;99.90
31084;DHT22;36333;51.382;0.016;2022-09-14T18:35:08;16.40;99.90
31084;DHT22;36333;51.382;0.016;2022-09-14T18:37:43;16.50;99.90